sensor_id;sensor_type;location;lat;lon;timestamp;P1;durP1;ratioP1;P2;durP2;ratioP2
11943;SDS011;6031;50.220;10.122;2023-05-08T00:01:54;5.83;;;5.33;;
11943;SDS011;6031;50.220;10.122;2023-05-08T00:04:20;4.73;;;3.97;;
11943;SDS011;6031;50.220;10.122;2023-05-08T00:06:46;5.13;;;4.63;;
11943;SDS011;6031;50.220;10.122;2023-05-08T00:09:11;3.87;;;3.57;;
11943;SDS011;6031;50.220;10.122;2023-05-08T00:11:37;5.53;;;5.03;;
11943;SDS011;6031;50.220;10.122;2023-05-08T00:14:03;5.23;;;4.50;;
11943;SDS011;6031;50.220;10.122;2023-05-08T00:16:28;5.30;;;4.80;;
11943;SDS011;6031;50.220;10.122;2023-05-08T00:18:55;6.33;;;5.37;;
11943;SDS011;6031;50.220;10.122;2023-05-08T00:21:20;6.63;;;4.70;;
11943;SDS011;6031;50.220;10.122;2023-05-08T00:23:46;5.83;;;5.43;;
11943;SDS011;6031;50.220;10.122;2023-05-08T00:26:11;5.10;;;4.60;;
11943;SDS011;6031;50.220;10.122;2023-05-08T00:28:37;6.63;;;4.77;;
11943;SDS011;6031;50.220;10.122;2023-05-08T00:31:02;5.33;;;4.93;;
11943;SDS011;6031;50.220;10.122;2023-05-08T00:33:28;6.67;;;5.80;;
11943;SDS011;6031;50.220;10.122;2023-05-08T00:35:57;6.20;;;5.60;;
11943;SDS011;6031;50.220;10.122;2023-05-08T00:38:28;4.07;;;3.77;;
11943;SDS011;6031;50.220;10.122;2023-05-08T00:40:55;5.30;;;4.80;;
11943;SDS011;6031;50.220;10.122;2023-05-08T00:43:20;5.73;;;5.13;;
11943;SDS011;6031;50.220;10.122;2023-05-08T00:45:49;5.57;;;5.07;;
11943;SDS011;6031;50.220;10.122;2023-05-08T00:48:16;4.43;;;3.90;;
11943;SDS011;6031;50.220;10.122;2023-05-08T00:50:42;4.63;;;4.23;;
11943;SDS011;6031;50.220;10.122;2023-05-08T00:53:07;5.20;;;4.70;;
11943;SDS011;6031;50.220;10.122;2023-05-08T00:55:33;6.63;;;5.93;;
11943;SDS011;6031;50.220;10.122;2023-05-08T00:57:59;6.67;;;6.07;;
11943;SDS011;6031;50.220;10.122;2023-05-08T01:00:24;6.43;;;5.77;;
11943;SDS011;6031;50.220;10.122;2023-05-08T01:02:50;4.67;;;4.27;;
11943;SDS011;6031;50.220;10.122;2023-05-08T01:05:16;5.83;;;5.33;;
11943;SDS011;6031;50.220;10.122;2023-05-08T01:08:00;6.40;;;5.73;;
11943;SDS011;6031;50.220;10.122;2023-05-08T01:10:27;6.00;;;5.50;;
11943;SDS011;6031;50.220;10.122;2023-05-08T01:13:27;7.17;;;6.27;;
11943;SDS011;6031;50.220;10.122;2023-05-08T01:16:17;6.00;;;5.40;;
11943;SDS011;6031;50.220;10.122;2023-05-08T01:18:56;6.17;;;5.67;;
11943;SDS011;6031;50.220;10.122;2023-05-08T01:21:45;5.97;;;5.40;;
11943;SDS011;6031;50.220;10.122;2023-05-08T01:24:21;6.63;;;5.93;;
11943;SDS011;6031;50.220;10.122;2023-05-08T01:27:25;7.03;;;6.30;;
11943;SDS011;6031;50.220;10.122;2023-05-08T01:30:26;6.23;;;5.63;;
11943;SDS011;6031;50.220;10.122;2023-05-08T01:33:09;5.13;;;4.73;;
11943;SDS011;6031;50.220;10.122;2023-05-08T01:35:46;8.10;;;6.67;;
11943;SDS011;6031;50.220;10.122;2023-05-08T01:41:02;6.90;;;6.30;;
11943;SDS011;6031;50.220;10.122;2023-05-08T01:43:38;5.93;;;5.43;;
11943;SDS011;6031;50.220;10.122;2023-05-08T01:46:17;5.63;;;5.13;;
11943;SDS011;6031;50.220;10.122;2023-05-08T01:48:50;5.30;;;4.83;;
11943;SDS011;6031;50.220;10.122;2023-05-08T01:51:39;10.20;;;6.83;;
11943;SDS011;6031;50.220;10.122;2023-05-08T01:54:09;5.00;;;4.60;;
11943;SDS011;6031;50.220;10.122;2023-05-08T01:56:46;6.90;;;6.30;;
11943;SDS011;6031;50.220;10.122;2023-05-08T01:59:15;6.80;;;6.20;;
11943;SDS011;6031;50.220;10.122;2023-05-08T02:01:44;7.43;;;6.73;;
11943;SDS011;6031;50.220;10.122;2023-05-08T02:04:10;7.47;;;6.67;;
11943;SDS011;6031;50.220;10.122;2023-05-08T02:06:39;8.37;;;6.33;;
11943;SDS011;6031;50.220;10.122;2023-05-08T02:09:06;5.77;;;5.00;;
11943;SDS011;6031;50.220;10.122;2023-05-08T02:11:34;7.63;;;6.30;;
11943;SDS011;6031;50.220;10.122;2023-05-08T02:14:01;8.17;;;6.67;;
11943;SDS011;6031;50.220;10.122;2023-05-08T02:16:28;7.30;;;6.20;;
11943;SDS011;6031;50.220;10.122;2023-05-08T02:18:55;8.43;;;7.70;;
11943;SDS011;6031;50.220;10.122;2023-05-08T02:21:24;6.47;;;5.97;;
11943;SDS011;6031;50.220;10.122;2023-05-08T02:23:51;7.00;;;6.37;;
11943;SDS011;6031;50.220;10.122;2023-05-08T02:26:19;6.70;;;6.00;;
11943;SDS011;6031;50.220;10.122;2023-05-08T02:28:47;6.27;;;5.73;;
11943;SDS011;6031;50.220;10.122;2023-05-08T02:31:14;7.33;;;6.33;;
11943;SDS011;6031;50.220;10.122;2023-05-08T02:33:41;6.87;;;5.60;;
11943;SDS011;6031;50.220;10.122;2023-05-08T02:36:09;9.57;;;6.27;;
11943;SDS011;6031;50.220;10.122;2023-05-08T02:38:37;6.77;;;6.03;;
11943;SDS011;6031;50.220;10.122;2023-05-08T02:41:05;8.10;;;6.67;;
11943;SDS011;6031;50.220;10.122;2023-05-08T02:43:32;6.70;;;6.10;;
11943;SDS011;6031;50.220;10.122;2023-05-08T02:49:06;7.07;;;6.47;;
11943;SDS011;6031;50.220;10.122;2023-05-08T02:51:46;7.97;;;7.00;;
11943;SDS011;6031;50.220;10.122;2023-05-08T02:54:25;7.33;;;6.63;;
11943;SDS011;6031;50.220;10.122;2023-05-08T02:59:56;7.00;;;6.33;;
11943;SDS011;6031;50.220;10.122;2023-05-08T03:02:34;5.30;;;4.80;;
11943;SDS011;6031;50.220;10.122;2023-05-08T03:05:30;7.27;;;6.60;;
11943;SDS011;6031;50.220;10.122;2023-05-08T03:07:59;5.20;;;4.80;;
11943;SDS011;6031;50.220;10.122;2023-05-08T03:10:30;8.90;;;6.80;;
11943;SDS011;6031;50.220;10.122;2023-05-08T03:12:58;7.97;;;6.53;;
11943;SDS011;6031;50.220;10.122;2023-05-08T03:15:35;7.50;;;6.50;;
11943;SDS011;6031;50.220;10.122;2023-05-08T03:18:16;7.43;;;6.63;;
11943;SDS011;6031;50.220;10.122;2023-05-08T03:20:48;7.23;;;6.23;;
11943;SDS011;6031;50.220;10.122;2023-05-08T03:23:18;7.17;;;6.53;;
11943;SDS011;6031;50.220;10.122;2023-05-08T03:25:45;7.13;;;6.40;;
11943;SDS011;6031;50.220;10.122;2023-05-08T03:28:12;8.73;;;6.40;;
11943;SDS011;6031;50.220;10.122;2023-05-08T03:30:39;6.90;;;6.10;;
11943;SDS011;6031;50.220;10.122;2023-05-08T03:33:05;6.40;;;5.80;;
11943;SDS011;6031;50.220;10.122;2023-05-08T03:35:35;7.60;;;6.90;;
11943;SDS011;6031;50.220;10.122;2023-05-08T03:38:02;7.23;;;6.53;;
11943;SDS011;6031;50.220;10.122;2023-05-08T03:40:28;7.20;;;6.43;;
11943;SDS011;6031;50.220;10.122;2023-05-08T03:42:54;8.23;;;6.43;;
11943;SDS011;6031;50.220;10.122;2023-05-08T03:45:20;8.43;;;6.93;;
11943;SDS011;6031;50.220;10.122;2023-05-08T03:47:47;6.20;;;5.63;;
11943;SDS011;6031;50.220;10.122;2023-05-08T03:50:14;6.80;;;6.20;;
11943;SDS011;6031;50.220;10.122;2023-05-08T03:52:41;7.90;;;7.17;;
11943;SDS011;6031;50.220;10.122;2023-05-08T03:55:07;7.03;;;6.30;;
11943;SDS011;6031;50.220;10.122;2023-05-08T03:57:34;8.67;;;7.13;;
11943;SDS011;6031;50.220;10.122;2023-05-08T04:00:08;8.53;;;7.53;;
11943;SDS011;6031;50.220;10.122;2023-05-08T04:02:46;7.83;;;7.10;;
11943;SDS011;6031;50.220;10.122;2023-05-08T04:05:20;7.43;;;6.73;;
11943;SDS011;6031;50.220;10.122;2023-05-08T04:08:02;7.50;;;6.80;;
11943;SDS011;6031;50.220;10.122;2023-05-08T04:10:47;7.70;;;6.97;;
11943;SDS011;6031;50.220;10.122;2023-05-08T04:13:19;8.20;;;7.30;;
11943;SDS011;6031;50.220;10.122;2023-05-08T04:16:23;7.77;;;6.60;;
11943;SDS011;6031;50.220;10.122;2023-05-08T04:18:45;7.47;;;6.77;;
11943;SDS011;6031;50.220;10.122;2023-05-08T04:21:13;7.63;;;6.83;;
11943;SDS011;6031;50.220;10.122;2023-05-08T04:23:43;6.60;;;5.90;;
11943;SDS011;6031;50.220;10.122;2023-05-08T04:26:11;6.93;;;6.23;;
11943;SDS011;6031;50.220;10.122;2023-05-08T04:28:40;12.00;;;7.10;;
11943;SDS011;6031;50.220;10.122;2023-05-08T04:31:06;9.63;;;7.00;;
11943;SDS011;6031;50.220;10.122;2023-05-08T04:33:32;7.47;;;6.53;;
11943;SDS011;6031;50.220;10.122;2023-05-08T04:36:02;7.07;;;6.40;;
11943;SDS011;6031;50.220;10.122;2023-05-08T04:38:28;5.87;;;5.27;;
11943;SDS011;6031;50.220;10.122;2023-05-08T04:40:53;13.67;;;7.10;;
11943;SDS011;6031;50.220;10.122;2023-05-08T04:43:19;9.77;;;8.13;;
11943;SDS011;6031;50.220;10.122;2023-05-08T04:45:45;5.87;;;5.27;;
11943;SDS011;6031;50.220;10.122;2023-05-08T04:48:10;7.03;;;6.40;;
11943;SDS011;6031;50.220;10.122;2023-05-08T04:50:36;7.67;;;6.97;;
11943;SDS011;6031;50.220;10.122;2023-05-08T04:53:01;8.23;;;7.43;;
11943;SDS011;6031;50.220;10.122;2023-05-08T04:55:27;8.10;;;7.27;;
11943;SDS011;6031;50.220;10.122;2023-05-08T04:57:52;6.13;;;5.30;;
11943;SDS011;6031;50.220;10.122;2023-05-08T05:00:18;9.97;;;6.80;;
11943;SDS011;6031;50.220;10.122;2023-05-08T05:02:44;6.83;;;6.23;;
11943;SDS011;6031;50.220;10.122;2023-05-08T05:05:09;7.00;;;6.10;;
11943;SDS011;6031;50.220;10.122;2023-05-08T05:07:35;7.67;;;6.97;;
11943;SDS011;6031;50.220;10.122;2023-05-08T05:10:01;6.47;;;5.87;;
11943;SDS011;6031;50.220;10.122;2023-05-08T05:12:26;7.50;;;6.80;;
11943;SDS011;6031;50.220;10.122;2023-05-08T05:14:52;7.17;;;6.47;;
11943;SDS011;6031;50.220;10.122;2023-05-08T05:17:17;7.13;;;6.43;;
11943;SDS011;6031;50.220;10.122;2023-05-08T05:19:43;6.60;;;5.90;;
11943;SDS011;6031;50.220;10.122;2023-05-08T05:22:08;8.77;;;6.17;;
11943;SDS011;6031;50.220;10.122;2023-05-08T05:24:34;6.63;;;6.03;;
11943;SDS011;6031;50.220;10.122;2023-05-08T05:27:00;6.00;;;5.50;;
11943;SDS011;6031;50.220;10.122;2023-05-08T05:29:26;6.67;;;5.43;;
11943;SDS011;6031;50.220;10.122;2023-05-08T05:31:52;6.73;;;6.13;;
11943;SDS011;6031;50.220;10.122;2023-05-08T05:34:18;6.33;;;5.73;;
11943;SDS011;6031;50.220;10.122;2023-05-08T05:36:43;5.30;;;4.80;;
11943;SDS011;6031;50.220;10.122;2023-05-08T05:39:09;7.00;;;6.20;;
11943;SDS011;6031;50.220;10.122;2023-05-08T05:41:34;6.50;;;5.87;;
11943;SDS011;6031;50.220;10.122;2023-05-08T05:44:00;4.73;;;4.33;;
11943;SDS011;6031;50.220;10.122;2023-05-08T05:46:26;6.30;;;5.73;;
11943;SDS011;6031;50.220;10.122;2023-05-08T05:48:56;6.47;;;5.87;;
11943;SDS011;6031;50.220;10.122;2023-05-08T05:51:22;7.20;;;6.27;;
11943;SDS011;6031;50.220;10.122;2023-05-08T05:53:48;5.77;;;5.17;;
11943;SDS011;6031;50.220;10.122;2023-05-08T05:56:13;6.50;;;5.80;;
11943;SDS011;6031;50.220;10.122;2023-05-08T05:58:39;4.90;;;3.87;;
11943;SDS011;6031;50.220;10.122;2023-05-08T06:01:08;5.90;;;4.83;;
11943;SDS011;6031;50.220;10.122;2023-05-08T06:03:34;4.10;;;3.73;;
11943;SDS011;6031;50.220;10.122;2023-05-08T06:05:59;5.47;;;4.97;;
11943;SDS011;6031;50.220;10.122;2023-05-08T06:08:25;5.77;;;5.27;;
11943;SDS011;6031;50.220;10.122;2023-05-08T06:10:51;5.30;;;4.87;;
11943;SDS011;6031;50.220;10.122;2023-05-08T06:13:16;6.30;;;5.17;;
11943;SDS011;6031;50.220;10.122;2023-05-08T06:15:42;6.83;;;5.50;;
11943;SDS011;6031;50.220;10.122;2023-05-08T06:18:07;5.23;;;4.83;;
11943;SDS011;6031;50.220;10.122;2023-05-08T06:20:33;5.73;;;5.23;;
11943;SDS011;6031;50.220;10.122;2023-05-08T06:23:00;5.70;;;4.70;;
11943;SDS011;6031;50.220;10.122;2023-05-08T06:25:26;5.30;;;4.80;;
11943;SDS011;6031;50.220;10.122;2023-05-08T06:27:52;4.70;;;4.30;;
11943;SDS011;6031;50.220;10.122;2023-05-08T06:30:17;4.73;;;4.33;;
11943;SDS011;6031;50.220;10.122;2023-05-08T06:32:43;3.60;;;3.30;;
11943;SDS011;6031;50.220;10.122;2023-05-08T06:35:08;4.77;;;4.37;;
11943;SDS011;6031;50.220;10.122;2023-05-08T06:37:34;5.10;;;4.60;;
11943;SDS011;6031;50.220;10.122;2023-05-08T06:39:59;5.20;;;4.80;;
11943;SDS011;6031;50.220;10.122;2023-05-08T06:42:25;5.30;;;4.80;;
11943;SDS011;6031;50.220;10.122;2023-05-08T06:44:51;4.87;;;4.47;;
11943;SDS011;6031;50.220;10.122;2023-05-08T06:47:17;4.90;;;4.50;;
11943;SDS011;6031;50.220;10.122;2023-05-08T06:49:43;5.17;;;4.77;;
11943;SDS011;6031;50.220;10.122;2023-05-08T06:52:09;4.63;;;4.07;;
11943;SDS011;6031;50.220;10.122;2023-05-08T06:54:34;5.23;;;4.07;;
11943;SDS011;6031;50.220;10.122;2023-05-08T06:56:59;5.70;;;4.30;;
11943;SDS011;6031;50.220;10.122;2023-05-08T06:59:25;4.50;;;4.10;;
11943;SDS011;6031;50.220;10.122;2023-05-08T07:01:50;6.90;;;4.80;;
11943;SDS011;6031;50.220;10.122;2023-05-08T07:04:16;4.33;;;4.03;;
11943;SDS011;6031;50.220;10.122;2023-05-08T07:06:42;4.97;;;4.57;;
11943;SDS011;6031;50.220;10.122;2023-05-08T07:09:07;3.40;;;2.93;;
11943;SDS011;6031;50.220;10.122;2023-05-08T07:11:33;4.50;;;4.10;;
11943;SDS011;6031;50.220;10.122;2023-05-08T07:13:59;4.73;;;4.20;;
11943;SDS011;6031;50.220;10.122;2023-05-08T07:16:24;4.23;;;3.83;;
11943;SDS011;6031;50.220;10.122;2023-05-08T07:18:50;4.77;;;4.30;;
11943;SDS011;6031;50.220;10.122;2023-05-08T07:21:15;5.20;;;4.70;;
11943;SDS011;6031;50.220;10.122;2023-05-08T07:23:42;4.60;;;4.20;;
11943;SDS011;6031;50.220;10.122;2023-05-08T07:26:08;4.37;;;3.97;;
11943;SDS011;6031;50.220;10.122;2023-05-08T07:28:33;4.67;;;4.27;;
11943;SDS011;6031;50.220;10.122;2023-05-08T07:30:59;4.63;;;4.23;;
11943;SDS011;6031;50.220;10.122;2023-05-08T07:33:29;4.10;;;3.80;;
11943;SDS011;6031;50.220;10.122;2023-05-08T07:35:55;4.63;;;4.23;;
11943;SDS011;6031;50.220;10.122;2023-05-08T07:38:20;5.87;;;3.80;;
11943;SDS011;6031;50.220;10.122;2023-05-08T07:40:46;4.53;;;4.13;;
11943;SDS011;6031;50.220;10.122;2023-05-08T07:43:12;4.67;;;3.73;;
11943;SDS011;6031;50.220;10.122;2023-05-08T07:45:39;4.67;;;4.27;;
11943;SDS011;6031;50.220;10.122;2023-05-08T07:48:04;3.97;;;3.60;;
11943;SDS011;6031;50.220;10.122;2023-05-08T07:50:31;4.23;;;3.93;;
11943;SDS011;6031;50.220;10.122;2023-05-08T07:52:56;4.77;;;4.37;;
11943;SDS011;6031;50.220;10.122;2023-05-08T07:55:22;4.40;;;4.10;;
11943;SDS011;6031;50.220;10.122;2023-05-08T07:57:47;4.77;;;4.37;;
11943;SDS011;6031;50.220;10.122;2023-05-08T08:00:13;4.23;;;3.70;;
11943;SDS011;6031;50.220;10.122;2023-05-08T08:02:40;4.30;;;4.00;;
11943;SDS011;6031;50.220;10.122;2023-05-08T08:05:07;4.37;;;4.07;;
11943;SDS011;6031;50.220;10.122;2023-05-08T08:07:33;4.80;;;4.20;;
11943;SDS011;6031;50.220;10.122;2023-05-08T08:09:59;4.33;;;3.93;;
11943;SDS011;6031;50.220;10.122;2023-05-08T08:12:25;4.10;;;3.80;;
11943;SDS011;6031;50.220;10.122;2023-05-08T08:14:51;4.10;;;3.80;;
11943;SDS011;6031;50.220;10.122;2023-05-08T08:17:17;4.90;;;4.50;;
11943;SDS011;6031;50.220;10.122;2023-05-08T08:19:42;4.43;;;4.10;;
11943;SDS011;6031;50.220;10.122;2023-05-08T08:22:08;4.20;;;3.90;;
11943;SDS011;6031;50.220;10.122;2023-05-08T08:24:33;5.37;;;3.87;;
11943;SDS011;6031;50.220;10.122;2023-05-08T08:26:59;4.73;;;4.33;;
11943;SDS011;6031;50.220;10.122;2023-05-08T08:29:24;4.17;;;3.77;;
11943;SDS011;6031;50.220;10.122;2023-05-08T08:31:50;4.07;;;3.77;;
11943;SDS011;6031;50.220;10.122;2023-05-08T08:34:16;7.90;;;4.33;;
11943;SDS011;6031;50.220;10.122;2023-05-08T08:36:42;7.60;;;4.03;;
11943;SDS011;6031;50.220;10.122;2023-05-08T08:39:07;4.83;;;4.20;;
11943;SDS011;6031;50.220;10.122;2023-05-08T08:41:33;4.00;;;3.70;;
11943;SDS011;6031;50.220;10.122;2023-05-08T08:43:58;4.67;;;4.27;;
11943;SDS011;6031;50.220;10.122;2023-05-08T08:46:25;4.20;;;3.80;;
11943;SDS011;6031;50.220;10.122;2023-05-08T08:48:53;4.43;;;4.03;;
11943;SDS011;6031;50.220;10.122;2023-05-08T08:51:27;5.40;;;4.93;;
11943;SDS011;6031;50.220;10.122;2023-05-08T08:54:02;4.77;;;4.23;;
11943;SDS011;6031;50.220;10.122;2023-05-08T08:56:32;4.20;;;3.80;;
11943;SDS011;6031;50.220;10.122;2023-05-08T08:59:00;5.23;;;4.77;;
11943;SDS011;6031;50.220;10.122;2023-05-08T09:01:26;5.10;;;4.07;;
11943;SDS011;6031;50.220;10.122;2023-05-08T09:03:56;4.33;;;4.00;;
11943;SDS011;6031;50.220;10.122;2023-05-08T09:06:22;4.87;;;3.83;;
11943;SDS011;6031;50.220;10.122;2023-05-08T09:08:48;8.07;;;7.37;;
11943;SDS011;6031;50.220;10.122;2023-05-08T09:11:15;4.73;;;4.33;;
11943;SDS011;6031;50.220;10.122;2023-05-08T09:13:40;7.10;;;4.50;;
11943;SDS011;6031;50.220;10.122;2023-05-08T09:16:06;4.13;;;3.73;;
11943;SDS011;6031;50.220;10.122;2023-05-08T09:18:32;5.00;;;3.90;;
11943;SDS011;6031;50.220;10.122;2023-05-08T09:20:57;6.33;;;4.17;;
11943;SDS011;6031;50.220;10.122;2023-05-08T09:23:25;5.03;;;4.63;;
11943;SDS011;6031;50.220;10.122;2023-05-08T09:25:50;4.67;;;4.23;;
11943;SDS011;6031;50.220;10.122;2023-05-08T09:28:20;4.63;;;4.20;;
11943;SDS011;6031;50.220;10.122;2023-05-08T09:30:51;6.63;;;4.27;;
11943;SDS011;6031;50.220;10.122;2023-05-08T09:33:21;4.63;;;4.20;;
11943;SDS011;6031;50.220;10.122;2023-05-08T09:35:51;4.43;;;4.07;;
11943;SDS011;6031;50.220;10.122;2023-05-08T09:38:36;5.87;;;4.10;;
11943;SDS011;6031;50.220;10.122;2023-05-08T09:41:06;5.27;;;4.87;;
11943;SDS011;6031;50.220;10.122;2023-05-08T09:43:33;5.47;;;4.97;;
11943;SDS011;6031;50.220;10.122;2023-05-08T09:46:41;5.67;;;5.13;;
11943;SDS011;6031;50.220;10.122;2023-05-08T09:48:50;5.43;;;4.93;;
11943;SDS011;6031;50.220;10.122;2023-05-08T09:51:17;5.63;;;4.57;;
11943;SDS011;6031;50.220;10.122;2023-05-08T09:53:43;5.03;;;4.63;;
11943;SDS011;6031;50.220;10.122;2023-05-08T09:56:08;5.00;;;4.60;;
11943;SDS011;6031;50.220;10.122;2023-05-08T09:58:40;6.03;;;4.67;;
11943;SDS011;6031;50.220;10.122;2023-05-08T10:01:08;4.30;;;3.90;;
11943;SDS011;6031;50.220;10.122;2023-05-08T10:03:55;4.90;;;4.50;;
11943;SDS011;6031;50.220;10.122;2023-05-08T10:06:21;5.20;;;4.70;;
11943;SDS011;6031;50.220;10.122;2023-05-08T10:08:46;4.27;;;3.93;;
11943;SDS011;6031;50.220;10.122;2023-05-08T10:11:14;6.43;;;5.67;;
11943;SDS011;6031;50.220;10.122;2023-05-08T10:13:42;5.20;;;4.67;;
11943;SDS011;6031;50.220;10.122;2023-05-08T10:16:13;5.00;;;4.60;;
11943;SDS011;6031;50.220;10.122;2023-05-08T10:18:46;5.00;;;4.50;;
11943;SDS011;6031;50.220;10.122;2023-05-08T10:21:14;4.97;;;4.57;;
11943;SDS011;6031;50.220;10.122;2023-05-08T10:23:43;5.90;;;5.17;;
11943;SDS011;6031;50.220;10.122;2023-05-08T10:26:13;5.03;;;4.63;;
11943;SDS011;6031;50.220;10.122;2023-05-08T10:28:49;5.57;;;5.07;;
11943;SDS011;6031;50.220;10.122;2023-05-08T10:31:21;4.90;;;4.50;;
11943;SDS011;6031;50.220;10.122;2023-05-08T10:33:49;5.93;;;4.70;;
11943;SDS011;6031;50.220;10.122;2023-05-08T10:36:18;5.60;;;4.83;;
11943;SDS011;6031;50.220;10.122;2023-05-08T10:38:45;6.23;;;5.10;;
11943;SDS011;6031;50.220;10.122;2023-05-08T10:41:11;5.83;;;4.87;;
11943;SDS011;6031;50.220;10.122;2023-05-08T10:43:40;6.03;;;5.43;;
11943;SDS011;6031;50.220;10.122;2023-05-08T10:46:08;5.43;;;4.93;;
11943;SDS011;6031;50.220;10.122;2023-05-08T10:48:49;5.03;;;4.53;;
11943;SDS011;6031;50.220;10.122;2023-05-08T10:53:58;5.37;;;4.87;;
11943;SDS011;6031;50.220;10.122;2023-05-08T10:56:30;5.07;;;4.53;;
11943;SDS011;6031;50.220;10.122;2023-05-08T10:58:56;6.33;;;4.63;;
11943;SDS011;6031;50.220;10.122;2023-05-08T11:01:22;5.63;;;5.13;;
11943;SDS011;6031;50.220;10.122;2023-05-08T11:03:49;7.03;;;4.57;;
11943;SDS011;6031;50.220;10.122;2023-05-08T11:06:14;5.73;;;5.23;;
11943;SDS011;6031;50.220;10.122;2023-05-08T11:08:48;5.07;;;4.57;;
11943;SDS011;6031;50.220;10.122;2023-05-08T11:13:43;4.83;;;4.37;;
11943;SDS011;6031;50.220;10.122;2023-05-08T11:19:21;5.17;;;4.77;;
11943;SDS011;6031;50.220;10.122;2023-05-08T11:24:53;6.00;;;5.50;;
11943;SDS011;6031;50.220;10.122;2023-05-08T11:27:30;4.90;;;4.50;;
11943;SDS011;6031;50.220;10.122;2023-05-08T11:30:18;4.97;;;4.47;;
11943;SDS011;6031;50.220;10.122;2023-05-08T11:35:39;5.70;;;5.10;;
11943;SDS011;6031;50.220;10.122;2023-05-08T11:38:20;4.53;;;4.20;;
11943;SDS011;6031;50.220;10.122;2023-05-08T11:46:01;6.30;;;4.90;;
11943;SDS011;6031;50.220;10.122;2023-05-08T11:48:33;5.27;;;4.53;;
11943;SDS011;6031;50.220;10.122;2023-05-08T11:50:59;4.80;;;4.40;;
11943;SDS011;6031;50.220;10.122;2023-05-08T11:53:26;5.13;;;4.60;;
11943;SDS011;6031;50.220;10.122;2023-05-08T11:55:52;5.27;;;4.87;;
11943;SDS011;6031;50.220;10.122;2023-05-08T11:58:18;4.67;;;4.27;;
11943;SDS011;6031;50.220;10.122;2023-05-08T12:00:44;5.20;;;4.40;;
11943;SDS011;6031;50.220;10.122;2023-05-08T12:03:11;5.37;;;4.87;;
11943;SDS011;6031;50.220;10.122;2023-05-08T12:05:38;4.90;;;4.50;;
11943;SDS011;6031;50.220;10.122;2023-05-08T12:08:07;5.43;;;4.30;;
11943;SDS011;6031;50.220;10.122;2023-05-08T12:10:40;4.80;;;4.30;;
11943;SDS011;6031;50.220;10.122;2023-05-08T12:13:23;4.70;;;4.30;;
11943;SDS011;6031;50.220;10.122;2023-05-08T12:15:53;5.80;;;5.20;;
11943;SDS011;6031;50.220;10.122;2023-05-08T12:18:23;5.43;;;4.93;;
11943;SDS011;6031;50.220;10.122;2023-05-08T12:20:51;5.47;;;4.97;;
11943;SDS011;6031;50.220;10.122;2023-05-08T12:23:25;5.47;;;5.03;;
11943;SDS011;6031;50.220;10.122;2023-05-08T12:25:52;5.17;;;4.57;;
11943;SDS011;6031;50.220;10.122;2023-05-08T12:28:18;5.07;;;4.53;;
11943;SDS011;6031;50.220;10.122;2023-05-08T12:30:44;4.67;;;4.27;;
11943;SDS011;6031;50.220;10.122;2023-05-08T12:33:10;5.60;;;4.63;;
11943;SDS011;6031;50.220;10.122;2023-05-08T12:35:36;4.90;;;4.50;;
11943;SDS011;6031;50.220;10.122;2023-05-08T12:38:04;5.77;;;4.40;;
11943;SDS011;6031;50.220;10.122;2023-05-08T12:40:32;4.87;;;4.47;;
11943;SDS011;6031;50.220;10.122;2023-05-08T12:43:00;5.97;;;4.73;;
11943;SDS011;6031;50.220;10.122;2023-05-08T12:45:34;4.67;;;4.37;;
11943;SDS011;6031;50.220;10.122;2023-05-08T12:48:04;5.47;;;4.63;;
11943;SDS011;6031;50.220;10.122;2023-05-08T12:50:39;5.30;;;4.80;;
11943;SDS011;6031;50.220;10.122;2023-05-08T12:53:06;4.37;;;4.07;;
11943;SDS011;6031;50.220;10.122;2023-05-08T12:55:33;6.23;;;5.23;;
11943;SDS011;6031;50.220;10.122;2023-05-08T12:58:10;5.03;;;4.53;;
11943;SDS011;6031;50.220;10.122;2023-05-08T13:03:05;6.00;;;5.40;;
11943;SDS011;6031;50.220;10.122;2023-05-08T13:05:33;5.50;;;5.00;;
11943;SDS011;6031;50.220;10.122;2023-05-08T13:08:01;5.93;;;5.40;;
11943;SDS011;6031;50.220;10.122;2023-05-08T13:10:47;6.20;;;4.80;;
11943;SDS011;6031;50.220;10.122;2023-05-08T13:13:14;5.03;;;4.63;;
11943;SDS011;6031;50.220;10.122;2023-05-08T13:15:44;4.83;;;4.43;;
11943;SDS011;6031;50.220;10.122;2023-05-08T13:18:10;5.40;;;4.90;;
11943;SDS011;6031;50.220;10.122;2023-05-08T13:20:36;5.87;;;4.33;;
11943;SDS011;6031;50.220;10.122;2023-05-08T13:23:02;5.00;;;4.60;;
11943;SDS011;6031;50.220;10.122;2023-05-08T13:25:29;5.57;;;5.07;;
11943;SDS011;6031;50.220;10.122;2023-05-08T13:27:55;5.57;;;5.07;;
11943;SDS011;6031;50.220;10.122;2023-05-08T13:30:20;5.57;;;5.07;;
11943;SDS011;6031;50.220;10.122;2023-05-08T13:32:49;4.97;;;4.57;;
11943;SDS011;6031;50.220;10.122;2023-05-08T13:35:16;7.73;;;5.07;;
11943;SDS011;6031;50.220;10.122;2023-05-08T13:37:42;5.20;;;4.80;;
11943;SDS011;6031;50.220;10.122;2023-05-08T13:40:07;5.30;;;4.70;;
11943;SDS011;6031;50.220;10.122;2023-05-08T13:42:33;4.83;;;4.43;;
11943;SDS011;6031;50.220;10.122;2023-05-08T13:44:59;5.40;;;4.53;;
11943;SDS011;6031;50.220;10.122;2023-05-08T13:47:25;5.73;;;4.40;;
11943;SDS011;6031;50.220;10.122;2023-05-08T13:49:51;5.30;;;4.90;;
11943;SDS011;6031;50.220;10.122;2023-05-08T13:52:16;5.30;;;4.80;;
11943;SDS011;6031;50.220;10.122;2023-05-08T13:54:42;5.33;;;4.83;;
11943;SDS011;6031;50.220;10.122;2023-05-08T13:57:08;5.20;;;4.70;;
11943;SDS011;6031;50.220;10.122;2023-05-08T13:59:33;5.30;;;4.90;;
11943;SDS011;6031;50.220;10.122;2023-05-08T14:01:59;4.83;;;4.43;;
11943;SDS011;6031;50.220;10.122;2023-05-08T14:04:25;5.13;;;4.83;;
11943;SDS011;6031;50.220;10.122;2023-05-08T14:06:51;5.93;;;5.43;;
11943;SDS011;6031;50.220;10.122;2023-05-08T14:09:16;6.17;;;5.20;;
11943;SDS011;6031;50.220;10.122;2023-05-08T14:11:42;5.37;;;4.97;;
11943;SDS011;6031;50.220;10.122;2023-05-08T14:14:07;5.50;;;4.83;;
11943;SDS011;6031;50.220;10.122;2023-05-08T14:16:33;4.80;;;4.40;;
11943;SDS011;6031;50.220;10.122;2023-05-08T14:18:58;5.70;;;5.20;;
11943;SDS011;6031;50.220;10.122;2023-05-08T14:21:24;6.75;;;5.05;;
11943;SDS011;6031;50.220;10.122;2023-05-08T14:23:49;4.90;;;4.50;;
11943;SDS011;6031;50.220;10.122;2023-05-08T14:26:15;4.70;;;4.18;;
11943;SDS011;6031;50.220;10.122;2023-05-08T14:28:40;4.40;;;4.00;;
11943;SDS011;6031;50.220;10.122;2023-05-08T14:31:06;5.13;;;4.63;;
11943;SDS011;6031;50.220;10.122;2023-05-08T14:33:31;5.00;;;4.57;;
11943;SDS011;6031;50.220;10.122;2023-05-08T14:35:57;4.70;;;4.30;;
11943;SDS011;6031;50.220;10.122;2023-05-08T14:38:23;4.63;;;4.22;;
11943;SDS011;6031;50.220;10.122;2023-05-08T14:40:49;4.93;;;4.53;;
11943;SDS011;6031;50.220;10.122;2023-05-08T14:43:15;4.80;;;4.40;;
11943;SDS011;6031;50.220;10.122;2023-05-08T14:45:41;5.35;;;4.25;;
11943;SDS011;6031;50.220;10.122;2023-05-08T14:48:06;4.10;;;3.70;;
11943;SDS011;6031;50.220;10.122;2023-05-08T14:50:32;5.10;;;4.67;;
11943;SDS011;6031;50.220;10.122;2023-05-08T14:52:57;4.30;;;3.93;;
11943;SDS011;6031;50.220;10.122;2023-05-08T14:55:23;4.40;;;4.10;;
11943;SDS011;6031;50.220;10.122;2023-05-08T14:57:49;6.03;;;5.53;;
11943;SDS011;6031;50.220;10.122;2023-05-08T15:00:14;5.50;;;5.00;;
11943;SDS011;6031;50.220;10.122;2023-05-08T15:02:41;5.93;;;5.33;;
11943;SDS011;6031;50.220;10.122;2023-05-08T15:05:07;5.73;;;4.83;;
11943;SDS011;6031;50.220;10.122;2023-05-08T15:07:33;4.80;;;4.37;;
11943;SDS011;6031;50.220;10.122;2023-05-08T15:09:59;5.03;;;4.30;;
11943;SDS011;6031;50.220;10.122;2023-05-08T15:12:25;4.03;;;3.73;;
11943;SDS011;6031;50.220;10.122;2023-05-08T15:14:50;5.83;;;4.47;;
11943;SDS011;6031;50.220;10.122;2023-05-08T15:17:16;8.07;;;4.03;;
11943;SDS011;6031;50.220;10.122;2023-05-08T15:19:42;8.50;;;5.00;;
11943;SDS011;6031;50.220;10.122;2023-05-08T15:22:09;4.63;;;4.32;;
11943;SDS011;6031;50.220;10.122;2023-05-08T15:24:35;5.10;;;4.70;;
11943;SDS011;6031;50.220;10.122;2023-05-08T15:27:00;5.53;;;4.73;;